sensor_id;sensor_type;location;lat;lon;timestamp;P1;durP1;ratioP1;P2;durP2;ratioP2
19509;SDS011;9896;42.486;26.506;2022-09-09T00:00:22;8.47;;;4.90;;
19509;SDS011;9896;42.486;26.506;2022-09-09T00:02:54;7.30;;;4.53;;
19509;SDS011;9896;42.486;26.506;2022-09-09T00:08:11;12.90;;;5.83;;
19509;SDS011;9896;42.486;26.506;2022-09-09T00:10:49;9.60;;;5.17;;
19509;SDS011;9896;42.486;26.506;2022-09-09T00:16:09;11.80;;;6.07;;
19509;SDS011;9896;42.486;26.506;2022-09-09T00:21:13;13.70;;;6.07;;
19509;SDS011;9896;42.486;26.506;2022-09-09T00:23:55;14.67;;;5.87;;
19509;SDS011;9896;42.486;26.506;2022-09-09T00:26:32;12.13;;;6.63;;
19509;SDS011;9896;42.486;26.506;2022-09-09T00:29:14;14.83;;;7.70;;
19509;SDS011;9896;42.486;26.506;2022-09-09T00:31:41;17.17;;;7.43;;
19509;SDS011;9896;42.486;26.506;2022-09-09T00:36:41;15.43;;;7.57;;
19509;SDS011;9896;42.486;26.506;2022-09-09T00:39:10;15.00;;;7.23;;
19509;SDS011;9896;42.486;26.506;2022-09-09T00:44:35;13.73;;;6.80;;
19509;SDS011;9896;42.486;26.506;2022-09-09T00:50:06;14.73;;;7.80;;
19509;SDS011;9896;42.486;26.506;2022-09-09T00:53:04;13.67;;;7.63;;
19509;SDS011;9896;42.486;26.506;2022-09-09T00:58:27;16.07;;;8.77;;
19509;SDS011;9896;42.486;26.506;2022-09-09T01:01:03;20.20;;;8.30;;
19509;SDS011;9896;42.486;26.506;2022-09-09T01:03:38;13.00;;;7.53;;
19509;SDS011;9896;42.486;26.506;2022-09-09T01:06:12;18.90;;;10.30;;
19509;SDS011;9896;42.486;26.506;2022-09-09T01:11:07;15.90;;;8.70;;
19509;SDS011;9896;42.486;26.506;2022-09-09T01:13:40;19.67;;;7.93;;
19509;SDS011;9896;42.486;26.506;2022-09-09T01:16:11;12.23;;;6.80;;
19509;SDS011;9896;42.486;26.506;2022-09-09T01:18:43;18.33;;;10.13;;
19509;SDS011;9896;42.486;26.506;2022-09-09T01:21:32;49.80;;;26.23;;
19509;SDS011;9896;42.486;26.506;2022-09-09T01:24:23;36.93;;;18.30;;
19509;SDS011;9896;42.486;26.506;2022-09-09T01:27:01;17.67;;;10.70;;
19509;SDS011;9896;42.486;26.506;2022-09-09T01:29:29;20.13;;;9.33;;
19509;SDS011;9896;42.486;26.506;2022-09-09T01:31:55;23.57;;;12.37;;
19509;SDS011;9896;42.486;26.506;2022-09-09T01:34:44;20.67;;;11.20;;
19509;SDS011;9896;42.486;26.506;2022-09-09T01:37:12;24.70;;;11.83;;
19509;SDS011;9896;42.486;26.506;2022-09-09T01:39:39;20.37;;;9.83;;
19509;SDS011;9896;42.486;26.506;2022-09-09T01:42:07;16.63;;;8.30;;
19509;SDS011;9896;42.486;26.506;2022-09-09T01:44:35;16.23;;;7.60;;
19509;SDS011;9896;42.486;26.506;2022-09-09T01:47:02;20.70;;;7.50;;
19509;SDS011;9896;42.486;26.506;2022-09-09T01:49:28;15.23;;;8.97;;
19509;SDS011;9896;42.486;26.506;2022-09-09T01:51:54;13.67;;;7.93;;
19509;SDS011;9896;42.486;26.506;2022-09-09T01:54:21;11.77;;;6.87;;
19509;SDS011;9896;42.486;26.506;2022-09-09T02:02:18;12.93;;;6.20;;
19509;SDS011;9896;42.486;26.506;2022-09-09T02:04:45;13.03;;;6.80;;
19509;SDS011;9896;42.486;26.506;2022-09-09T02:07:19;18.37;;;9.83;;
19509;SDS011;9896;42.486;26.506;2022-09-09T02:09:58;14.77;;;8.10;;
19509;SDS011;9896;42.486;26.506;2022-09-09T02:12:35;21.40;;;10.33;;
19509;SDS011;9896;42.486;26.506;2022-09-09T02:15:07;14.93;;;7.47;;
19509;SDS011;9896;42.486;26.506;2022-09-09T02:17:43;25.33;;;9.53;;
19509;SDS011;9896;42.486;26.506;2022-09-09T02:20:12;13.07;;;8.63;;
19509;SDS011;9896;42.486;26.506;2022-09-09T02:22:39;14.37;;;7.93;;
19509;SDS011;9896;42.486;26.506;2022-09-09T02:25:09;20.10;;;8.50;;
19509;SDS011;9896;42.486;26.506;2022-09-09T02:27:39;14.17;;;6.70;;
19509;SDS011;9896;42.486;26.506;2022-09-09T02:30:08;10.87;;;5.97;;
19509;SDS011;9896;42.486;26.506;2022-09-09T02:32:35;11.17;;;5.70;;
19509;SDS011;9896;42.486;26.506;2022-09-09T02:35:06;15.27;;;7.60;;
19509;SDS011;9896;42.486;26.506;2022-09-09T02:37:37;31.50;;;14.93;;
19509;SDS011;9896;42.486;26.506;2022-09-09T02:40:05;26.93;;;12.17;;
19509;SDS011;9896;42.486;26.506;2022-09-09T02:42:38;22.07;;;11.63;;
19509;SDS011;9896;42.486;26.506;2022-09-09T02:45:08;22.73;;;11.37;;
19509;SDS011;9896;42.486;26.506;2022-09-09T02:47:38;17.63;;;9.33;;
19509;SDS011;9896;42.486;26.506;2022-09-09T02:50:15;15.30;;;8.47;;
19509;SDS011;9896;42.486;26.506;2022-09-09T02:58:28;24.07;;;10.57;;
19509;SDS011;9896;42.486;26.506;2022-09-09T03:00:54;22.17;;;10.23;;
19509;SDS011;9896;42.486;26.506;2022-09-09T03:03:22;28.50;;;9.90;;
19509;SDS011;9896;42.486;26.506;2022-09-09T03:05:48;16.20;;;9.40;;
19509;SDS011;9896;42.486;26.506;2022-09-09T03:08:14;18.30;;;9.83;;
19509;SDS011;9896;42.486;26.506;2022-09-09T03:10:40;14.93;;;8.67;;
19509;SDS011;9896;42.486;26.506;2022-09-09T03:13:06;12.50;;;7.47;;
19509;SDS011;9896;42.486;26.506;2022-09-09T03:15:33;19.13;;;8.70;;
19509;SDS011;9896;42.486;26.506;2022-09-09T03:17:59;19.83;;;8.17;;
19509;SDS011;9896;42.486;26.506;2022-09-09T03:20:25;16.77;;;9.13;;
19509;SDS011;9896;42.486;26.506;2022-09-09T03:22:52;19.03;;;10.07;;
19509;SDS011;9896;42.486;26.506;2022-09-09T03:25:19;17.57;;;9.93;;
19509;SDS011;9896;42.486;26.506;2022-09-09T03:27:45;16.00;;;9.47;;
19509;SDS011;9896;42.486;26.506;2022-09-09T03:30:11;14.73;;;8.10;;
19509;SDS011;9896;42.486;26.506;2022-09-09T03:32:37;11.73;;;7.93;;
19509;SDS011;9896;42.486;26.506;2022-09-09T03:35:03;14.00;;;8.00;;
19509;SDS011;9896;42.486;26.506;2022-09-09T03:37:29;15.60;;;7.67;;
19509;SDS011;9896;42.486;26.506;2022-09-09T03:39:54;13.43;;;6.93;;
19509;SDS011;9896;42.486;26.506;2022-09-09T03:42:20;15.50;;;8.23;;
19509;SDS011;9896;42.486;26.506;2022-09-09T03:44:46;15.97;;;8.90;;
19509;SDS011;9896;42.486;26.506;2022-09-09T03:47:18;15.70;;;8.60;;
19509;SDS011;9896;42.486;26.506;2022-09-09T03:49:46;16.23;;;9.30;;
19509;SDS011;9896;42.486;26.506;2022-09-09T03:52:12;12.90;;;8.83;;
19509;SDS011;9896;42.486;26.506;2022-09-09T03:54:37;16.77;;;10.73;;
19509;SDS011;9896;42.486;26.506;2022-09-09T03:57:04;22.50;;;8.70;;
19509;SDS011;9896;42.486;26.506;2022-09-09T03:59:30;16.73;;;10.33;;
19509;SDS011;9896;42.486;26.506;2022-09-09T04:01:55;20.03;;;9.50;;
19509;SDS011;9896;42.486;26.506;2022-09-09T04:04:22;22.17;;;12.47;;
19509;SDS011;9896;42.486;26.506;2022-09-09T04:06:47;23.67;;;10.77;;
19509;SDS011;9896;42.486;26.506;2022-09-09T04:09:13;18.80;;;9.10;;
19509;SDS011;9896;42.486;26.506;2022-09-09T04:11:39;23.93;;;10.17;;
19509;SDS011;9896;42.486;26.506;2022-09-09T04:14:05;23.37;;;10.70;;
19509;SDS011;9896;42.486;26.506;2022-09-09T04:16:31;25.30;;;12.17;;
19509;SDS011;9896;42.486;26.506;2022-09-09T04:18:58;25.80;;;12.53;;
19509;SDS011;9896;42.486;26.506;2022-09-09T04:21:24;27.37;;;13.97;;
19509;SDS011;9896;42.486;26.506;2022-09-09T04:23:50;35.43;;;18.03;;
19509;SDS011;9896;42.486;26.506;2022-09-09T04:26:16;28.50;;;15.97;;
19509;SDS011;9896;42.486;26.506;2022-09-09T04:28:42;27.23;;;14.00;;
19509;SDS011;9896;42.486;26.506;2022-09-09T04:31:08;23.17;;;13.03;;
19509;SDS011;9896;42.486;26.506;2022-09-09T04:33:48;23.97;;;12.73;;
19509;SDS011;9896;42.486;26.506;2022-09-09T04:36:14;27.20;;;14.97;;
19509;SDS011;9896;42.486;26.506;2022-09-09T04:38:40;19.03;;;10.60;;
19509;SDS011;9896;42.486;26.506;2022-09-09T04:41:06;15.60;;;7.53;;
19509;SDS011;9896;42.486;26.506;2022-09-09T04:43:32;15.57;;;7.47;;
19509;SDS011;9896;42.486;26.506;2022-09-09T04:45:58;13.53;;;7.20;;
19509;SDS011;9896;42.486;26.506;2022-09-09T04:48:26;15.63;;;6.77;;
19509;SDS011;9896;42.486;26.506;2022-09-09T04:50:59;13.70;;;6.80;;
19509;SDS011;9896;42.486;26.506;2022-09-09T04:53:26;13.83;;;6.27;;
19509;SDS011;9896;42.486;26.506;2022-09-09T04:56:04;11.97;;;6.90;;
19509;SDS011;9896;42.486;26.506;2022-09-09T04:58:32;14.90;;;7.20;;
19509;SDS011;9896;42.486;26.506;2022-09-09T05:01:04;25.80;;;12.07;;
19509;SDS011;9896;42.486;26.506;2022-09-09T05:03:42;13.90;;;7.20;;
19509;SDS011;9896;42.486;26.506;2022-09-09T05:06:11;13.10;;;7.57;;
19509;SDS011;9896;42.486;26.506;2022-09-09T05:08:38;12.90;;;7.80;;
19509;SDS011;9896;42.486;26.506;2022-09-09T05:11:18;16.40;;;7.13;;
19509;SDS011;9896;42.486;26.506;2022-09-09T05:13:47;14.17;;;7.63;;
19509;SDS011;9896;42.486;26.506;2022-09-09T05:16:12;15.43;;;7.23;;
19509;SDS011;9896;42.486;26.506;2022-09-09T05:18:39;14.57;;;7.20;;
19509;SDS011;9896;42.486;26.506;2022-09-09T05:21:05;15.10;;;7.53;;
19509;SDS011;9896;42.486;26.506;2022-09-09T05:23:32;16.57;;;6.73;;
19509;SDS011;9896;42.486;26.506;2022-09-09T05:25:58;12.33;;;5.87;;
19509;SDS011;9896;42.486;26.506;2022-09-09T05:28:25;8.60;;;5.93;;
19509;SDS011;9896;42.486;26.506;2022-09-09T05:30:55;15.20;;;6.40;;
19509;SDS011;9896;42.486;26.506;2022-09-09T05:33:25;12.00;;;5.57;;
19509;SDS011;9896;42.486;26.506;2022-09-09T05:36:11;10.50;;;5.47;;
19509;SDS011;9896;42.486;26.506;2022-09-09T05:38:38;9.43;;;5.27;;
19509;SDS011;9896;42.486;26.506;2022-09-09T05:41:05;8.17;;;4.77;;
19509;SDS011;9896;42.486;26.506;2022-09-09T05:43:32;9.73;;;5.13;;
19509;SDS011;9896;42.486;26.506;2022-09-09T05:45:58;8.13;;;5.13;;
19509;SDS011;9896;42.486;26.506;2022-09-09T05:48:38;6.50;;;4.27;;
19509;SDS011;9896;42.486;26.506;2022-09-09T05:51:06;7.73;;;4.40;;
19509;SDS011;9896;42.486;26.506;2022-09-09T05:53:34;10.47;;;5.43;;
19509;SDS011;9896;42.486;26.506;2022-09-09T05:56:00;7.90;;;5.47;;
19509;SDS011;9896;42.486;26.506;2022-09-09T05:58:28;10.80;;;5.47;;
19509;SDS011;9896;42.486;26.506;2022-09-09T06:01:31;9.60;;;5.40;;
19509;SDS011;9896;42.486;26.506;2022-09-09T06:03:53;22.03;;;7.00;;
19509;SDS011;9896;42.486;26.506;2022-09-09T06:06:20;12.20;;;5.60;;
19509;SDS011;9896;42.486;26.506;2022-09-09T06:08:47;10.90;;;6.13;;
19509;SDS011;9896;42.486;26.506;2022-09-09T06:11:19;10.37;;;5.73;;
19509;SDS011;9896;42.486;26.506;2022-09-09T06:13:47;14.60;;;7.33;;
19509;SDS011;9896;42.486;26.506;2022-09-09T06:16:16;15.07;;;6.80;;
19509;SDS011;9896;42.486;26.506;2022-09-09T06:18:43;13.03;;;7.20;;
19509;SDS011;9896;42.486;26.506;2022-09-09T06:21:19;20.30;;;8.50;;
19509;SDS011;9896;42.486;26.506;2022-09-09T06:23:49;12.90;;;7.17;;
19509;SDS011;9896;42.486;26.506;2022-09-09T06:28:43;12.43;;;7.13;;
19509;SDS011;9896;42.486;26.506;2022-09-09T06:31:12;14.80;;;6.83;;
19509;SDS011;9896;42.486;26.506;2022-09-09T06:33:41;12.03;;;7.40;;
19509;SDS011;9896;42.486;26.506;2022-09-09T06:36:12;15.33;;;6.70;;
19509;SDS011;9896;42.486;26.506;2022-09-09T06:38:40;11.80;;;6.40;;
19509;SDS011;9896;42.486;26.506;2022-09-09T06:41:07;9.90;;;5.27;;
19509;SDS011;9896;42.486;26.506;2022-09-09T06:43:33;8.30;;;4.63;;
19509;SDS011;9896;42.486;26.506;2022-09-09T06:46:04;7.93;;;4.83;;
19509;SDS011;9896;42.486;26.506;2022-09-09T06:48:31;8.87;;;4.30;;
19509;SDS011;9896;42.486;26.506;2022-09-09T06:51:04;8.40;;;3.50;;
19509;SDS011;9896;42.486;26.506;2022-09-09T06:53:35;6.23;;;3.40;;
19509;SDS011;9896;42.486;26.506;2022-09-09T06:58:37;6.30;;;3.30;;
19509;SDS011;9896;42.486;26.506;2022-09-09T07:01:09;5.97;;;3.90;;
19509;SDS011;9896;42.486;26.506;2022-09-09T07:03:40;6.23;;;3.30;;
19509;SDS011;9896;42.486;26.506;2022-09-09T07:06:13;5.37;;;3.10;;
19509;SDS011;9896;42.486;26.506;2022-09-09T07:08:42;8.33;;;3.57;;
19509;SDS011;9896;42.486;26.506;2022-09-09T07:11:08;5.73;;;3.40;;
19509;SDS011;9896;42.486;26.506;2022-09-09T07:13:34;6.07;;;3.40;;
19509;SDS011;9896;42.486;26.506;2022-09-09T07:16:04;8.60;;;3.83;;
19509;SDS011;9896;42.486;26.506;2022-09-09T07:18:33;4.10;;;2.77;;
19509;SDS011;9896;42.486;26.506;2022-09-09T07:21:00;7.13;;;2.90;;
19509;SDS011;9896;42.486;26.506;2022-09-09T07:23:27;3.30;;;2.53;;
19509;SDS011;9896;42.486;26.506;2022-09-09T07:25:53;6.10;;;2.90;;
19509;SDS011;9896;42.486;26.506;2022-09-09T07:28:19;6.47;;;2.83;;
19509;SDS011;9896;42.486;26.506;2022-09-09T07:30:54;4.33;;;2.80;;
19509;SDS011;9896;42.486;26.506;2022-09-09T07:33:21;13.63;;;2.90;;
19509;SDS011;9896;42.486;26.506;2022-09-09T07:35:47;3.73;;;2.23;;
19509;SDS011;9896;42.486;26.506;2022-09-09T07:38:13;4.60;;;3.00;;
19509;SDS011;9896;42.486;26.506;2022-09-09T07:40:39;7.23;;;2.40;;
19509;SDS011;9896;42.486;26.506;2022-09-09T07:43:05;3.23;;;2.30;;
19509;SDS011;9896;42.486;26.506;2022-09-09T07:45:30;4.00;;;2.20;;
19509;SDS011;9896;42.486;26.506;2022-09-09T07:47:57;4.73;;;2.60;;
19509;SDS011;9896;42.486;26.506;2022-09-09T07:50:23;4.60;;;2.17;;
19509;SDS011;9896;42.486;26.506;2022-09-09T07:52:50;3.57;;;2.40;;
19509;SDS011;9896;42.486;26.506;2022-09-09T07:55:16;2.37;;;2.03;;
19509;SDS011;9896;42.486;26.506;2022-09-09T07:57:42;5.63;;;2.47;;
19509;SDS011;9896;42.486;26.506;2022-09-09T08:00:08;3.60;;;2.00;;
19509;SDS011;9896;42.486;26.506;2022-09-09T08:02:35;6.77;;;2.77;;
19509;SDS011;9896;42.486;26.506;2022-09-09T08:05:00;4.10;;;2.00;;
19509;SDS011;9896;42.486;26.506;2022-09-09T08:07:26;3.13;;;2.00;;
19509;SDS011;9896;42.486;26.506;2022-09-09T08:09:52;8.50;;;2.40;;
19509;SDS011;9896;42.486;26.506;2022-09-09T08:12:19;4.40;;;2.40;;
19509;SDS011;9896;42.486;26.506;2022-09-09T08:14:44;8.02;;;1.85;;
19509;SDS011;9896;42.486;26.506;2022-09-09T08:17:10;4.93;;;1.80;;
19509;SDS011;9896;42.486;26.506;2022-09-09T08:19:35;3.80;;;1.90;;
19509;SDS011;9896;42.486;26.506;2022-09-09T08:22:01;3.55;;;1.90;;
19509;SDS011;9896;42.486;26.506;2022-09-09T08:24:28;5.23;;;1.80;;
19509;SDS011;9896;42.486;26.506;2022-09-09T08:26:54;3.63;;;2.10;;
19509;SDS011;9896;42.486;26.506;2022-09-09T08:29:21;2.00;;;1.60;;
19509;SDS011;9896;42.486;26.506;2022-09-09T08:31:48;3.53;;;1.80;;
19509;SDS011;9896;42.486;26.506;2022-09-09T08:34:16;3.47;;;2.17;;
19509;SDS011;9896;42.486;26.506;2022-09-09T08:36:45;4.72;;;2.45;;
19509;SDS011;9896;42.486;26.506;2022-09-09T08:39:13;3.53;;;2.00;;
19509;SDS011;9896;42.486;26.506;2022-09-09T08:55:32;25.60;;;5.65;;
19509;SDS011;9896;42.486;26.506;2022-09-09T08:58:12;10.77;;;2.65;;
19509;SDS011;9896;42.486;26.506;2022-09-09T09:00:44;3.95;;;1.95;;
19509;SDS011;9896;42.486;26.506;2022-09-09T09:03:31;8.75;;;3.95;;
19509;SDS011;9896;42.486;26.506;2022-09-09T09:09:21;3.60;;;1.70;;
19509;SDS011;9896;42.486;26.506;2022-09-09T09:12:00;1.80;;;1.70;;
19509;SDS011;9896;42.486;26.506;2022-09-09T09:14:34;6.47;;;2.17;;
19509;SDS011;9896;42.486;26.506;2022-09-09T09:19:38;9.48;;;2.53;;
19509;SDS011;9896;42.486;26.506;2022-09-09T09:24:56;5.32;;;2.10;;
19509;SDS011;9896;42.486;26.506;2022-09-09T09:27:31;5.78;;;2.42;;
19509;SDS011;9896;42.486;26.506;2022-09-09T09:30:10;2.63;;;1.95;;
19509;SDS011;9896;42.486;26.506;2022-09-09T09:32:48;10.23;;;2.83;;
19509;SDS011;9896;42.486;26.506;2022-09-09T09:35:15;4.22;;;2.38;;
19509;SDS011;9896;42.486;26.506;2022-09-09T09:37:41;6.78;;;2.38;;
19509;SDS011;9896;42.486;26.506;2022-09-09T09:40:09;11.85;;;2.70;;
19509;SDS011;9896;42.486;26.506;2022-09-09T09:42:37;7.78;;;2.65;;
19509;SDS011;9896;42.486;26.506;2022-09-09T09:45:16;3.15;;;2.30;;
19509;SDS011;9896;42.486;26.506;2022-09-09T09:48:01;4.38;;;2.22;;
19509;SDS011;9896;42.486;26.506;2022-09-09T09:50:31;4.72;;;2.38;;
19509;SDS011;9896;42.486;26.506;2022-09-09T09:53:04;2.83;;;2.10;;
19509;SDS011;9896;42.486;26.506;2022-09-09T09:55:32;4.05;;;2.45;;
19509;SDS011;9896;42.486;26.506;2022-09-09T09:58:13;5.65;;;2.88;;
19509;SDS011;9896;42.486;26.506;2022-09-09T10:00:47;2.65;;;2.17;;
19509;SDS011;9896;42.486;26.506;2022-09-09T10:03:35;5.97;;;2.50;;
19509;SDS011;9896;42.486;26.506;2022-09-09T10:06:05;5.25;;;2.42;;
19509;SDS011;9896;42.486;26.506;2022-09-09T10:08:33;2.25;;;2.00;;
19509;SDS011;9896;42.486;26.506;2022-09-09T10:14:08;5.18;;;2.33;;
19509;SDS011;9896;42.486;26.506;2022-09-09T10:22:02;3.38;;;2.15;;
19509;SDS011;9896;42.486;26.506;2022-09-09T10:24:47;5.68;;;2.25;;
19509;SDS011;9896;42.486;26.506;2022-09-09T10:32:39;3.00;;;1.77;;
19509;SDS011;9896;42.486;26.506;2022-09-09T10:40:34;2.72;;;2.22;;
19509;SDS011;9896;42.486;26.506;2022-09-09T10:43:30;3.78;;;2.05;;
19509;SDS011;9896;42.486;26.506;2022-09-09T10:59:50;6.07;;;2.47;;
19509;SDS011;9896;42.486;26.506;2022-09-09T11:10:40;8.02;;;2.80;;
19509;SDS011;9896;42.486;26.506;2022-09-09T11:16:28;5.50;;;2.53;;
19509;SDS011;9896;42.486;26.506;2022-09-09T11:22:27;7.00;;;3.10;;
19509;SDS011;9896;42.486;26.506;2022-09-09T11:27:31;2.85;;;2.00;;
19509;SDS011;9896;42.486;26.506;2022-09-09T11:30:22;4.85;;;2.25;;
19509;SDS011;9896;42.486;26.506;2022-09-09T11:38:46;4.32;;;2.38;;
19509;SDS011;9896;42.486;26.506;2022-09-09T11:41:16;3.42;;;2.25;;
19509;SDS011;9896;42.486;26.506;2022-09-09T11:43:44;4.00;;;2.42;;
19509;SDS011;9896;42.486;26.506;2022-09-09T11:46:12;2.80;;;2.47;;
19509;SDS011;9896;42.486;26.506;2022-09-09T11:48:58;2.67;;;2.00;;
19509;SDS011;9896;42.486;26.506;2022-09-09T11:51:29;3.75;;;2.22;;
19509;SDS011;9896;42.486;26.506;2022-09-09T11:54:04;4.75;;;2.22;;
19509;SDS011;9896;42.486;26.506;2022-09-09T11:56:54;5.97;;;2.50;;
19509;SDS011;9896;42.486;26.506;2022-09-09T11:59:20;8.70;;;2.65;;
19509;SDS011;9896;42.486;26.506;2022-09-09T12:01:50;6.07;;;2.90;;
19509;SDS011;9896;42.486;26.506;2022-09-09T12:07:00;4.43;;;2.40;;
19509;SDS011;9896;42.486;26.506;2022-09-09T12:15:00;3.63;;;2.80;;
19509;SDS011;9896;42.486;26.506;2022-09-09T12:17:43;5.25;;;2.03;;
19509;SDS011;9896;42.486;26.506;2022-09-09T12:30:59;10.13;;;3.03;;
19509;SDS011;9896;42.486;26.506;2022-09-09T12:33:42;7.60;;;2.63;;
19509;SDS011;9896;42.486;26.506;2022-09-09T12:36:11;3.67;;;2.50;;
19509;SDS011;9896;42.486;26.506;2022-09-09T12:38:41;6.88;;;2.38;;
19509;SDS011;9896;42.486;26.506;2022-09-09T12:41:17;5.20;;;2.92;;
19509;SDS011;9896;42.486;26.506;2022-09-09T12:43:48;2.70;;;2.20;;
19509;SDS011;9896;42.486;26.506;2022-09-09T12:46:23;3.60;;;2.13;;
19509;SDS011;9896;42.486;26.506;2022-09-09T12:49:01;2.30;;;2.10;;
19509;SDS011;9896;42.486;26.506;2022-09-09T12:51:30;5.18;;;2.40;;
19509;SDS011;9896;42.486;26.506;2022-09-09T12:53:57;3.10;;;2.20;;
19509;SDS011;9896;42.486;26.506;2022-09-09T12:56:28;3.03;;;2.60;;
19509;SDS011;9896;42.486;26.506;2022-09-09T12:58:57;6.75;;;2.60;;
19509;SDS011;9896;42.486;26.506;2022-09-09T13:03:51;4.07;;;2.72;;
19509;SDS011;9896;42.486;26.506;2022-09-09T13:06:19;4.60;;;2.38;;
19509;SDS011;9896;42.486;26.506;2022-09-09T13:08:48;3.55;;;2.60;;
19509;SDS011;9896;42.486;26.506;2022-09-09T13:11:23;4.68;;;2.50;;
19509;SDS011;9896;42.486;26.506;2022-09-09T13:13:55;4.25;;;2.53;;
19509;SDS011;9896;42.486;26.506;2022-09-09T13:16:26;9.85;;;3.00;;
19509;SDS011;9896;42.486;26.506;2022-09-09T13:19:02;7.00;;;2.55;;
19509;SDS011;9896;42.486;26.506;2022-09-09T13:21:33;5.75;;;2.65;;
19509;SDS011;9896;42.486;26.506;2022-09-09T13:23:59;2.85;;;2.38;;
19509;SDS011;9896;42.486;26.506;2022-09-09T13:26:28;3.88;;;2.63;;
19509;SDS011;9896;42.486;26.506;2022-09-09T13:28:55;6.60;;;3.38;;
19509;SDS011;9896;42.486;26.506;2022-09-09T13:31:33;4.28;;;2.35;;
19509;SDS011;9896;42.486;26.506;2022-09-09T13:34:22;4.35;;;2.30;;
19509;SDS011;9896;42.486;26.506;2022-09-09T13:36:59;7.43;;;2.95;;
19509;SDS011;9896;42.486;26.506;2022-09-09T13:39:34;5.05;;;2.40;;
19509;SDS011;9896;42.486;26.506;2022-09-09T13:42:02;4.90;;;2.70;;
19509;SDS011;9896;42.486;26.506;2022-09-09T13:44:36;3.85;;;2.20;;
19509;SDS011;9896;42.486;26.506;2022-09-09T13:47:17;5.85;;;2.20;;
19509;SDS011;9896;42.486;26.506;2022-09-09T13:49:44;6.60;;;3.30;;
19509;SDS011;9896;42.486;26.506;2022-09-09T13:52:15;5.03;;;2.85;;
19509;SDS011;9896;42.486;26.506;2022-09-09T13:54:42;4.97;;;2.40;;
19509;SDS011;9896;42.486;26.506;2022-09-09T13:57:14;8.10;;;2.60;;
19509;SDS011;9896;42.486;26.506;2022-09-09T13:59:47;4.07;;;2.60;;
19509;SDS011;9896;42.486;26.506;2022-09-09T14:02:14;4.63;;;2.13;;
19509;SDS011;9896;42.486;26.506;2022-09-09T14:04:43;4.38;;;2.60;;
19509;SDS011;9896;42.486;26.506;2022-09-09T14:07:13;5.57;;;2.50;;
19509;SDS011;9896;42.486;26.506;2022-09-09T14:09:43;5.45;;;2.28;;
19509;SDS011;9896;42.486;26.506;2022-09-09T14:12:09;11.48;;;3.13;;
19509;SDS011;9896;42.486;26.506;2022-09-09T14:14:36;6.38;;;3.55;;
19509;SDS011;9896;42.486;26.506;2022-09-09T14:17:01;7.93;;;3.40;;
19509;SDS011;9896;42.486;26.506;2022-09-09T14:19:28;6.97;;;3.25;;
19509;SDS011;9896;42.486;26.506;2022-09-09T14:21:56;6.03;;;2.60;;
19509;SDS011;9896;42.486;26.506;2022-09-09T14:24:23;3.72;;;2.28;;
19509;SDS011;9896;42.486;26.506;2022-09-09T14:26:49;4.22;;;2.55;;
19509;SDS011;9896;42.486;26.506;2022-09-09T14:29:14;10.75;;;3.05;;
19509;SDS011;9896;42.486;26.506;2022-09-09T14:31:39;14.48;;;2.55;;
19509;SDS011;9896;42.486;26.506;2022-09-09T14:34:05;10.55;;;3.40;;
19509;SDS011;9896;42.486;26.506;2022-09-09T14:36:31;18.67;;;3.92;;
19509;SDS011;9896;42.486;26.506;2022-09-09T14:38:59;11.98;;;2.50;;
19509;SDS011;9896;42.486;26.506;2022-09-09T14:41:24;11.10;;;3.15;;
19509;SDS011;9896;42.486;26.506;2022-09-09T14:43:50;47.45;;;5.50;;
19509;SDS011;9896;42.486;26.506;2022-09-09T14:46:17;11.23;;;3.10;;
19509;SDS011;9896;42.486;26.506;2022-09-09T14:48:44;12.10;;;2.90;;
19509;SDS011;9896;42.486;26.506;2022-09-09T14:53:37;5.18;;;2.90;;
19509;SDS011;9896;42.486;26.506;2022-09-09T14:56:05;6.85;;;2.70;;
19509;SDS011;9896;42.486;26.506;2022-09-09T14:58:32;4.78;;;2.90;;
19509;SDS011;9896;42.486;26.506;2022-09-09T15:01:11;5.70;;;2.60;;
19509;SDS011;9896;42.486;26.506;2022-09-09T15:03:38;4.43;;;3.05;;
19509;SDS011;9896;42.486;26.506;2022-09-09T15:06:08;3.58;;;2.55;;
19509;SDS011;9896;42.486;26.506;2022-09-09T15:08:36;4.80;;;2.38;;
19509;SDS011;9896;42.486;26.506;2022-09-09T15:11:03;5.63;;;2.83;;
19509;SDS011;9896;42.486;26.506;2022-09-09T15:13:30;15.43;;;3.30;;
19509;SDS011;9896;42.486;26.506;2022-09-09T15:16:00;4.72;;;2.65;;
19509;SDS011;9896;42.486;26.506;2022-09-09T15:18:29;7.05;;;3.15;;
19509;SDS011;9896;42.486;26.506;2022-09-09T15:20:54;15.93;;;3.05;;
19509;SDS011;9896;42.486;26.506;2022-09-09T15:23:19;14.43;;;3.72;;
19509;SDS011;9896;42.486;26.506;2022-09-09T15:25:54;8.02;;;2.67;;
19509;SDS011;9896;42.486;26.506;2022-09-09T15:28:21;4.68;;;2.53;;
19509;SDS011;9896;42.486;26.506;2022-09-09T15:30:51;5.57;;;2.60;;
19509;SDS011;9896;42.486;26.506;2022-09-09T15:33:18;6.18;;;3.15;;
19509;SDS011;9896;42.486;26.506;2022-09-09T15:35:45;5.93;;;2.83;;
19509;SDS011;9896;42.486;26.506;2022-09-09T15:38:11;5.53;;;2.88;;
19509;SDS011;9896;42.486;26.506;2022-09-09T15:40:38;7.18;;;2.47;;
19509;SDS011;9896;42.486;26.506;2022-09-09T15:43:06;5.18;;;2.47;;
19509;SDS011;9896;42.486;26.506;2022-09-09T15:45:33;4.07;;;2.35;;
19509;SDS011;9896;42.486;26.506;2022-09-09T15:48:02;7.88;;;2.85;;
19509;SDS011;9896;42.486;26.506;2022-09-09T15:50:28;6.18;;;3.00;;
19509;SDS011;9896;42.486;26.506;2022-09-09T15:52:56;5.55;;;2.72;;
19509;SDS011;9896;42.486;26.506;2022-09-09T15:55:22;3.67;;;2.67;;
19509;SDS011;9896;42.486;26.506;2022-09-09T15:57:49;6.50;;;2.50;;
19509;SDS011;9896;42.486;26.506;2022-09-09T16:00:15;7.55;;;2.67;;
19509;SDS011;9896;42.486;26.506;2022-09-09T16:02:40;6.13;;;3.03;;
19509;SDS011;9896;42.486;26.506;2022-09-09T16:05:06;6.10;;;2.40;;
19509;SDS011;9896;42.486;26.506;2022-09-09T16:07:33;4.90;;;2.40;;
19509;SDS011;9896;42.486;26.506;2022-09-09T16:10:00;4.10;;;2.47;;
19509;SDS011;9896;42.486;26.506;2022-09-09T16:12:26;3.97;;;2.58;;
19509;SDS011;9896;42.486;26.506;2022-09-09T16:14:51;4.93;;;2.70;;
19509;SDS011;9896;42.486;26.506;2022-09-09T16:17:17;5.70;;;2.97;;
19509;SDS011;9896;42.486;26.506;2022-09-09T16:19:45;5.18;;;2.80;;
19509;SDS011;9896;42.486;26.506;2022-09-09T16:22:10;5.40;;;2.65;;
19509;SDS011;9896;42.486;26.506;2022-09-09T16:24:36;4.47;;;3.10;;
19509;SDS011;9896;42.486;26.506;2022-09-09T16:27:02;4.47;;;2.83;;
19509;SDS011;9896;42.486;26.506;2022-09-09T16:29:27;8.63;;;3.15;;
19509;SDS011;9896;42.486;26.506;2022-09-09T16:31:53;8.98;;;2.88;;
19509;SDS011;9896;42.486;26.506;2022-09-09T16:34:19;6.10;;;3.10;;
19509;SDS011;9896;42.486;26.506;2022-09-09T16:36:46;8.95;;;2.90;;
19509;SDS011;9896;42.486;26.506;2022-09-09T16:39:17;8.05;;;3.50;;
19509;SDS011;9896;42.486;26.506;2022-09-09T16:41:45;4.10;;;2.70;;
19509;SDS011;9896;42.486;26.506;2022-09-09T16:44:12;4.28;;;2.70;;
19509;SDS011;9896;42.486;26.506;2022-09-09T16:46:41;4.68;;;3.00;;
19509;SDS011;9896;42.486;26.506;2022-09-09T16:49:09;5.78;;;3.05;;
19509;SDS011;9896;42.486;26.506;2022-09-09T16:51:38;6.45;;;2.80;;
19509;SDS011;9896;42.486;26.506;2022-09-09T16:54:06;4.97;;;2.97;;
19509;SDS011;9896;42.486;26.506;2022-09-09T16:56:33;4.88;;;3.28;;
19509;SDS011;9896;42.486;26.506;2022-09-09T16:59:02;5.47;;;2.88;;
19509;SDS011;9896;42.486;26.506;2022-09-09T17:01:31;4.72;;;2.50;;
19509;SDS011;9896;42.486;26.506;2022-09-09T17:04:01;5.40;;;2.70;;
19509;SDS011;9896;42.486;26.506;2022-09-09T17:06:32;4.88;;;3.05;;
19509;SDS011;9896;42.486;26.506;2022-09-09T17:09:06;12.93;;;4.43;;
19509;SDS011;9896;42.486;26.506;2022-09-09T17:11:36;6.18;;;3.15;;
19509;SDS011;9896;42.486;26.506;2022-09-09T17:14:03;6.05;;;3.20;;
19509;SDS011;9896;42.486;26.506;2022-09-09T17:16:30;5.85;;;3.22;;